sensor_id;sensor_type;location;lat;lon;timestamp;pressure;altitude;pressure_sealevel;temperature;humidity
59475;BME280;45288;51.136;16.928;2024-01-30T00:00:41;101709.63;;;5.71;75.75
59475;BME280;45288;51.136;16.928;2024-01-30T00:03:30;101705.78;;;5.53;77.01
59475;BME280;45288;51.136;16.928;2024-01-30T00:06:11;101709.78;;;5.32;77.64
59475;BME280;45288;51.136;16.928;2024-01-30T00:08:59;101710.53;;;5.37;78.26
59475;BME280;45288;51.136;16.928;2024-01-30T00:11:38;101706.50;;;5.25;78.99
59475;BME280;45288;51.136;16.928;2024-01-30T00:14:24;101713.41;;;5.26;79.03
59475;BME280;45288;51.136;16.928;2024-01-30T00:17:05;101712.19;;;5.39;77.86
59475;BME280;45288;51.136;16.928;2024-01-30T00:19:51;101712.78;;;5.51;77.18
59475;BME280;45288;51.136;16.928;2024-01-30T00:22:34;101723.50;;;5.38;77.70
59475;BME280;45288;51.136;16.928;2024-01-30T00:25:24;101713.72;;;5.48;76.96
59475;BME280;45288;51.136;16.928;2024-01-30T00:28:06;101721.97;;;5.31;77.73
59475;BME280;45288;51.136;16.928;2024-01-30T00:30:54;101715.06;;;5.30;77.49
59475;BME280;45288;51.136;16.928;2024-01-30T00:33:37;101718.06;;;5.47;76.59
59475;BME280;45288;51.136;16.928;2024-01-30T00:36:23;101715.22;;;5.24;77.63
59475;BME280;45288;51.136;16.928;2024-01-30T00:39:04;101718.78;;;5.20;78.57
59475;BME280;45288;51.136;16.928;2024-01-30T00:41:52;101719.31;;;5.33;78.11
59475;BME280;45288;51.136;16.928;2024-01-30T00:44:36;101715.47;;;5.15;79.24
59475;BME280;45288;51.136;16.928;2024-01-30T00:47:22;101716.03;;;5.26;79.03
59475;BME280;45288;51.136;16.928;2024-01-30T00:50:03;101715.09;;;5.29;79.15
59475;BME280;45288;51.136;16.928;2024-01-30T00:52:49;101712.53;;;5.27;78.46
59475;BME280;45288;51.136;16.928;2024-01-30T00:55:32;101705.78;;;5.20;79.48
59475;BME280;45288;51.136;16.928;2024-01-30T00:58:19;101711.84;;;5.20;79.90
59475;BME280;45288;51.136;16.928;2024-01-30T01:01:03;101708.06;;;5.32;78.97
59475;BME280;45288;51.136;16.928;2024-01-30T01:03:49;101715.81;;;5.34;78.88
59475;BME280;45288;51.136;16.928;2024-01-30T01:06:28;101722.28;;;5.52;77.61
59475;BME280;45288;51.136;16.928;2024-01-30T01:09:14;101721.97;;;5.31;78.59
59475;BME280;45288;51.136;16.928;2024-01-30T01:11:58;101719.31;;;5.33;78.43
59475;BME280;45288;51.136;16.928;2024-01-30T01:14:45;101717.47;;;5.36;78.35
59475;BME280;45288;51.136;16.928;2024-01-30T01:17:26;101715.28;;;5.21;79.06
59475;BME280;45288;51.136;16.928;2024-01-30T01:20:12;101715.19;;;4.91;81.18
59475;BME280;45288;51.136;16.928;2024-01-30T01:22:53;101712.03;;;4.78;81.68
59475;BME280;45288;51.136;16.928;2024-01-30T01:25:39;101711.03;;;4.84;81.85
59475;BME280;45288;51.136;16.928;2024-01-30T01:28:20;101710.84;;;4.90;81.47
59475;BME280;45288;51.136;16.928;2024-01-30T01:31:06;101707.00;;;5.07;81.02
59475;BME280;45288;51.136;16.928;2024-01-30T01:33:59;101709.84;;;5.30;78.59
59475;BME280;45288;51.136;16.928;2024-01-30T01:36:31;101701.84;;;5.36;78.21
59475;BME280;45288;51.136;16.928;2024-01-30T01:39:24;101702.84;;;5.32;77.56
59475;BME280;45288;51.136;16.928;2024-01-30T01:41:58;101700.00;;;5.09;78.92
59475;BME280;45288;51.136;16.928;2024-01-30T01:44:51;101705.97;;;5.12;79.29
59475;BME280;45288;51.136;16.928;2024-01-30T01:47:27;101698.34;;;5.06;79.12
59475;BME280;45288;51.136;16.928;2024-01-30T01:50:21;101706.41;;;5.28;78.28
59475;BME280;45288;51.136;16.928;2024-01-30T01:52:55;101698.69;;;5.25;78.34
59475;BME280;45288;51.136;16.928;2024-01-30T01:55:48;101701.06;;;5.00;80.40
59475;BME280;45288;51.136;16.928;2024-01-30T01:58:22;101694.53;;;4.49;83.69
59475;BME280;45288;51.136;16.928;2024-01-30T02:01:20;101697.69;;;4.62;83.41
59475;BME280;45288;51.136;16.928;2024-01-30T02:03:53;101688.91;;;4.66;82.75
59475;BME280;45288;51.136;16.928;2024-01-30T02:06:46;101687.31;;;4.61;83.60
59475;BME280;45288;51.136;16.928;2024-01-30T02:09:19;101686.94;;;4.76;83.13
59475;BME280;45288;51.136;16.928;2024-01-30T02:12:13;101682.03;;;4.64;84.11
59475;BME280;45288;51.136;16.928;2024-01-30T02:14:48;101683.06;;;4.56;85.13
59475;BME280;45288;51.136;16.928;2024-01-30T02:17:43;101677.06;;;4.54;84.80
59475;BME280;45288;51.136;16.928;2024-01-30T02:20:20;101680.13;;;4.34;86.60
59475;BME280;45288;51.136;16.928;2024-01-30T02:23:17;101677.66;;;4.28;86.98
59475;BME280;45288;51.136;16.928;2024-01-30T02:25:55;101678.41;;;4.33;86.49
59475;BME280;45288;51.136;16.928;2024-01-30T02:28:51;101681.34;;;4.57;85.40
59475;BME280;45288;51.136;16.928;2024-01-30T02:31:27;101690.75;;;4.63;84.78
59475;BME280;45288;51.136;16.928;2024-01-30T02:34:24;101687.22;;;4.64;84.90
59475;BME280;45288;51.136;16.928;2024-01-30T02:36:57;101682.66;;;4.73;84.09
59475;BME280;45288;51.136;16.928;2024-01-30T02:39:52;101680.09;;;4.72;84.07
59475;BME280;45288;51.136;16.928;2024-01-30T02:42:24;101686.38;;;4.97;81.94
59475;BME280;45288;51.136;16.928;2024-01-30T02:45:19;101682.59;;;4.76;83.17
59475;BME280;45288;51.136;16.928;2024-01-30T02:47:53;101689.19;;;4.90;82.74
59475;BME280;45288;51.136;16.928;2024-01-30T02:50:48;101695.19;;;4.93;82.71
59475;BME280;45288;51.136;16.928;2024-01-30T02:53:22;101692.44;;;4.98;81.58
59475;BME280;45288;51.136;16.928;2024-01-30T02:56:15;101693.91;;;5.10;80.80
59475;BME280;45288;51.136;16.928;2024-01-30T02:58:49;101683.97;;;4.90;81.98
59475;BME280;45288;51.136;16.928;2024-01-30T03:01:43;101694.78;;;4.74;81.46
59475;BME280;45288;51.136;16.928;2024-01-30T03:04:17;101700.50;;;4.53;83.23
59475;BME280;45288;51.136;16.928;2024-01-30T03:07:11;101700.84;;;4.39;83.38
59475;BME280;45288;51.136;16.928;2024-01-30T03:09:45;101695.56;;;4.02;86.78
59475;BME280;45288;51.136;16.928;2024-01-30T03:12:41;101701.63;;;4.02;87.50
59475;BME280;45288;51.136;16.928;2024-01-30T03:15:18;101690.66;;;4.28;84.25
59475;BME280;45288;51.136;16.928;2024-01-30T03:18:12;101685.25;;;4.37;84.35
59475;BME280;45288;51.136;16.928;2024-01-30T03:20:46;101689.94;;;4.59;82.78
59475;BME280;45288;51.136;16.928;2024-01-30T03:23:39;101694.56;;;4.46;83.45
59475;BME280;45288;51.136;16.928;2024-01-30T03:26:15;101693.88;;;4.40;83.31
59475;BME280;45288;51.136;16.928;2024-01-30T03:29:11;101680.50;;;4.18;84.27
59475;BME280;45288;51.136;16.928;2024-01-30T03:31:45;101683.50;;;3.99;85.37
59475;BME280;45288;51.136;16.928;2024-01-30T03:34:39;101679.63;;;4.19;83.58
59475;BME280;45288;51.136;16.928;2024-01-30T03:37:13;101675.47;;;4.10;84.27
59475;BME280;45288;51.136;16.928;2024-01-30T03:40:07;101676.88;;;3.86;86.42
59475;BME280;45288;51.136;16.928;2024-01-30T03:42:41;101678.72;;;3.81;88.71
59475;BME280;45288;51.136;16.928;2024-01-30T03:45:37;101678.84;;;3.75;90.30
59475;BME280;45288;51.136;16.928;2024-01-30T03:48:11;101682.50;;;3.64;89.49
59475;BME280;45288;51.136;16.928;2024-01-30T03:51:07;101674.84;;;3.12;93.01
59475;BME280;45288;51.136;16.928;2024-01-30T03:53:43;101665.66;;;3.40;92.01
59475;BME280;45288;51.136;16.928;2024-01-30T03:56:37;101672.22;;;3.60;91.27
59475;BME280;45288;51.136;16.928;2024-01-30T03:59:09;101666.25;;;3.55;89.32
59475;BME280;45288;51.136;16.928;2024-01-30T04:02:04;101673.06;;;3.60;88.10
59475;BME280;45288;51.136;16.928;2024-01-30T04:04:36;101665.09;;;3.69;87.72
59475;BME280;45288;51.136;16.928;2024-01-30T04:07:33;101679.19;;;3.58;90.75
59475;BME280;45288;51.136;16.928;2024-01-30T04:10:08;101672.06;;;3.66;90.63
59475;BME280;45288;51.136;16.928;2024-01-30T04:13:02;101671.81;;;3.36;93.37
59475;BME280;45288;51.136;16.928;2024-01-30T04:15:35;101672.22;;;3.58;93.36
59475;BME280;45288;51.136;16.928;2024-01-30T04:18:29;101675.47;;;3.69;91.99
59475;BME280;45288;51.136;16.928;2024-01-30T04:21:07;101666.03;;;3.65;92.15
59475;BME280;45288;51.136;16.928;2024-01-30T04:24:02;101670.47;;;3.60;94.82
59475;BME280;45288;51.136;16.928;2024-01-30T04:26:34;101679.03;;;3.65;93.45
59475;BME280;45288;51.136;16.928;2024-01-30T04:29:29;101672.88;;;3.69;94.38
59475;BME280;45288;51.136;16.928;2024-01-30T04:32:01;101673.38;;;3.87;91.47
59475;BME280;45288;51.136;16.928;2024-01-30T04:34:54;101674.13;;;3.92;89.96
59475;BME280;45288;51.136;16.928;2024-01-30T04:37:28;101670.91;;;3.82;90.17
59475;BME280;45288;51.136;16.928;2024-01-30T04:40:21;101674.00;;;3.98;87.31
59475;BME280;45288;51.136;16.928;2024-01-30T04:42:53;101684.84;;;3.77;87.76
59475;BME280;45288;51.136;16.928;2024-01-30T04:45:49;101689.88;;;3.84;87.36
59475;BME280;45288;51.136;16.928;2024-01-30T04:48:21;101685.28;;;3.97;85.99
59475;BME280;45288;51.136;16.928;2024-01-30T04:51:14;101679.69;;;3.75;87.52
59475;BME280;45288;51.136;16.928;2024-01-30T04:53:47;101685.66;;;3.79;88.12
59475;BME280;45288;51.136;16.928;2024-01-30T04:56:39;101684.28;;;3.62;91.12
59475;BME280;45288;51.136;16.928;2024-01-30T04:59:13;101679.81;;;3.69;91.92
59475;BME280;45288;51.136;16.928;2024-01-30T05:02:06;101678.25;;;3.60;94.05
59475;BME280;45288;51.136;16.928;2024-01-30T05:04:40;101685.00;;;3.69;92.85
59475;BME280;45288;51.136;16.928;2024-01-30T05:07:38;101684.97;;;3.72;91.45
59475;BME280;45288;51.136;16.928;2024-01-30T05:10:10;101683.88;;;3.82;91.48
59475;BME280;45288;51.136;16.928;2024-01-30T05:13:05;101677.25;;;3.67;93.12
59475;BME280;45288;51.136;16.928;2024-01-30T05:15:39;101680.88;;;3.59;93.95
59475;BME280;45288;51.136;16.928;2024-01-30T05:18:34;101686.66;;;3.73;91.78
59475;BME280;45288;51.136;16.928;2024-01-30T05:21:08;101683.88;;;3.82;90.89
59475;BME280;45288;51.136;16.928;2024-01-30T05:24:04;101680.47;;;3.79;89.50
59475;BME280;45288;51.136;16.928;2024-01-30T05:26:36;101687.63;;;3.67;89.57
59475;BME280;45288;51.136;16.928;2024-01-30T05:29:29;101683.38;;;3.63;87.41
59475;BME280;45288;51.136;16.928;2024-01-30T05:32:03;101680.91;;;3.57;87.38
59475;BME280;45288;51.136;16.928;2024-01-30T05:34:56;101673.88;;;3.19;89.70
59475;BME280;45288;51.136;16.928;2024-01-30T05:37:28;101682.75;;;3.05;92.96
59475;BME280;45288;51.136;16.928;2024-01-30T05:40:21;101674.56;;;3.28;91.40
59475;BME280;45288;51.136;16.928;2024-01-30T05:42:53;101693.44;;;3.37;89.97
59475;BME280;45288;51.136;16.928;2024-01-30T05:45:46;101695.31;;;3.28;89.58
59475;BME280;45288;51.136;16.928;2024-01-30T05:48:18;101687.31;;;3.41;87.82
59475;BME280;45288;51.136;16.928;2024-01-30T05:51:11;101690.84;;;3.37;87.53
59475;BME280;45288;51.136;16.928;2024-01-30T05:53:43;101692.16;;;3.13;90.71
59475;BME280;45288;51.136;16.928;2024-01-30T05:56:40;101687.09;;;3.05;89.96
59475;BME280;45288;51.136;16.928;2024-01-30T05:59:14;101699.81;;;3.20;88.67
59475;BME280;45288;51.136;16.928;2024-01-30T06:02:12;101699.63;;;3.30;87.54
59475;BME280;45288;51.136;16.928;2024-01-30T06:04:46;101687.13;;;3.03;93.25
59475;BME280;45288;51.136;16.928;2024-01-30T06:07:41;101692.69;;;2.80;95.33
59475;BME280;45288;51.136;16.928;2024-01-30T06:10:13;101690.16;;;2.76;97.82
59475;BME280;45288;51.136;16.928;2024-01-30T06:13:08;101696.72;;;2.98;97.04
59475;BME280;45288;51.136;16.928;2024-01-30T06:15:44;101688.03;;;3.01;97.06
59475;BME280;45288;51.136;16.928;2024-01-30T06:18:37;101690.63;;;2.99;96.62
59475;BME280;45288;51.136;16.928;2024-01-30T06:21:09;101689.91;;;2.93;97.93
59475;BME280;45288;51.136;16.928;2024-01-30T06:24:04;101689.69;;;3.05;95.95
59475;BME280;45288;51.136;16.928;2024-01-30T06:26:36;101682.84;;;3.01;96.07
59475;BME280;45288;51.136;16.928;2024-01-30T06:29:31;101687.75;;;3.16;95.43
59475;BME280;45288;51.136;16.928;2024-01-30T06:32:04;101686.53;;;3.36;94.72
59475;BME280;45288;51.136;16.928;2024-01-30T06:35:03;101694.13;;;3.45;93.77
59475;BME280;45288;51.136;16.928;2024-01-30T06:37:36;101693.06;;;3.55;92.87
59475;BME280;45288;51.136;16.928;2024-01-30T06:40:29;101682.84;;;3.47;94.00
59475;BME280;45288;51.136;16.928;2024-01-30T06:43:02;101695.25;;;3.32;95.40
59475;BME280;45288;51.136;16.928;2024-01-30T06:45:56;101694.41;;;3.31;95.10
59475;BME280;45288;51.136;16.928;2024-01-30T06:48:30;101694.19;;;3.43;95.35
59475;BME280;45288;51.136;16.928;2024-01-30T06:51:27;101697.78;;;3.35;95.89
59475;BME280;45288;51.136;16.928;2024-01-30T06:54:01;101691.00;;;3.27;96.45
59475;BME280;45288;51.136;16.928;2024-01-30T06:56:56;101690.66;;;3.46;95.97
59475;BME280;45288;51.136;16.928;2024-01-30T06:59:32;101695.72;;;3.52;96.05
59475;BME280;45288;51.136;16.928;2024-01-30T07:02:29;101689.72;;;3.50;96.18
59475;BME280;45288;51.136;16.928;2024-01-30T07:05:02;101685.72;;;3.34;97.38
59475;BME280;45288;51.136;16.928;2024-01-30T07:07:55;101684.34;;;3.59;94.64
59475;BME280;45288;51.136;16.928;2024-01-30T07:10:28;101692.91;;;3.63;94.95
59475;BME280;45288;51.136;16.928;2024-01-30T07:13:22;101689.25;;;3.75;94.32
59475;BME280;45288;51.136;16.928;2024-01-30T07:15:54;101696.56;;;3.54;96.47
59475;BME280;45288;51.136;16.928;2024-01-30T07:18:47;101688.25;;;3.80;94.54
59475;BME280;45288;51.136;16.928;2024-01-30T07:21:19;101687.19;;;3.89;93.61
59475;BME280;45288;51.136;16.928;2024-01-30T07:24:13;101688.84;;;3.93;93.55
59475;BME280;45288;51.136;16.928;2024-01-30T07:26:46;101700.47;;;4.15;92.18
59475;BME280;45288;51.136;16.928;2024-01-30T07:29:38;101705.38;;;4.29;91.21
59475;BME280;45288;51.136;16.928;2024-01-30T07:32:10;101703.19;;;4.48;89.33
59475;BME280;45288;51.136;16.928;2024-01-30T07:35:04;101704.63;;;4.62;87.76
59475;BME280;45288;51.136;16.928;2024-01-30T07:37:36;101708.28;;;4.54;88.21
59475;BME280;45288;51.136;16.928;2024-01-30T07:40:30;101707.53;;;4.49;88.88
59475;BME280;45288;51.136;16.928;2024-01-30T07:43:03;101711.75;;;4.53;88.70
59475;BME280;45288;51.136;16.928;2024-01-30T07:45:55;101706.78;;;4.44;89.66
59475;BME280;45288;51.136;16.928;2024-01-30T07:48:28;101701.63;;;4.41;90.40
59475;BME280;45288;51.136;16.928;2024-01-30T07:51:20;101702.94;;;4.59;89.85
59475;BME280;45288;51.136;16.928;2024-01-30T07:53:52;101705.59;;;4.57;89.97
59475;BME280;45288;51.136;16.928;2024-01-30T07:56:47;101696.34;;;4.81;87.88
59475;BME280;45288;51.136;16.928;2024-01-30T07:59:21;101715.31;;;4.85;89.20
59475;BME280;45288;51.136;16.928;2024-01-30T08:02:14;101712.66;;;4.88;88.29
59475;BME280;45288;51.136;16.928;2024-01-30T08:04:48;101706.19;;;5.03;88.05
59475;BME280;45288;51.136;16.928;2024-01-30T08:07:41;101713.59;;;4.86;88.36
59475;BME280;45288;51.136;16.928;2024-01-30T08:10:17;101706.72;;;4.83;89.01
59475;BME280;45288;51.136;16.928;2024-01-30T08:13:12;101702.84;;;4.98;88.68
59475;BME280;45288;51.136;16.928;2024-01-30T08:15:44;101699.41;;;4.97;88.22
59475;BME280;45288;51.136;16.928;2024-01-30T08:18:39;101700.59;;;5.18;88.13
59475;BME280;45288;51.136;16.928;2024-01-30T08:21:11;101690.72;;;5.31;87.33
59475;BME280;45288;51.136;16.928;2024-01-30T08:24:05;101697.75;;;5.28;87.32
59475;BME280;45288;51.136;16.928;2024-01-30T08:26:44;101693.38;;;5.61;86.08
59475;BME280;45288;51.136;16.928;2024-01-30T08:29:34;101694.94;;;5.35;87.95
59475;BME280;45288;51.136;16.928;2024-01-30T08:32:16;101689.47;;;5.44;88.26
59475;BME280;45288;51.136;16.928;2024-01-30T08:35:02;101690.22;;;5.81;89.21
59475;BME280;45288;51.136;16.928;2024-01-30T08:37:42;101696.84;;;5.91;87.55
59475;BME280;45288;51.136;16.928;2024-01-30T08:40:29;101688.44;;;6.13;86.31
59475;BME280;45288;51.136;16.928;2024-01-30T08:43:09;101700.19;;;6.26;85.23
59475;BME280;45288;51.136;16.928;2024-01-30T08:45:56;101699.66;;;6.43;84.46
59475;BME280;45288;51.136;16.928;2024-01-30T08:48:37;101688.22;;;6.47;85.46
59475;BME280;45288;51.136;16.928;2024-01-30T08:51:23;101692.94;;;6.64;83.81
59475;BME280;45288;51.136;16.928;2024-01-30T08:54:03;101693.69;;;6.39;84.60
59475;BME280;45288;51.136;16.928;2024-01-30T08:56:48;101694.50;;;6.41;83.34
59475;BME280;45288;51.136;16.928;2024-01-30T08:59:27;101689.53;;;6.60;81.13
59475;BME280;45288;51.136;16.928;2024-01-30T09:02:13;101693.56;;;6.70;80.67
59475;BME280;45288;51.136;16.928;2024-01-30T09:04:54;101686.88;;;6.88;79.43
59475;BME280;45288;51.136;16.928;2024-01-30T09:07:44;101692.94;;;6.89;75.98
59475;BME280;45288;51.136;16.928;2024-01-30T09:10:26;101692.06;;;6.90;75.34
59475;BME280;45288;51.136;16.928;2024-01-30T09:13:14;101683.81;;;7.27;73.73
59475;BME280;45288;51.136;16.928;2024-01-30T09:15:54;101680.91;;;7.35;73.88
59475;BME280;45288;51.136;16.928;2024-01-30T09:18:40;101683.41;;;7.38;73.22
59475;BME280;45288;51.136;16.928;2024-01-30T09:21:19;101680.22;;;7.55;73.21
59475;BME280;45288;51.136;16.928;2024-01-30T09:24:05;101676.22;;;7.45;72.32
59475;BME280;45288;51.136;16.928;2024-01-30T09:26:46;101680.50;;;7.47;73.13
59475;BME280;45288;51.136;16.928;2024-01-30T09:29:34;101676.50;;;7.84;70.52
59475;BME280;45288;51.136;16.928;2024-01-30T09:32:21;101677.75;;;7.74;70.92
59475;BME280;45288;51.136;16.928;2024-01-30T09:35:16;101674.69;;;7.86;71.19
59475;BME280;45288;51.136;16.928;2024-01-30T09:37:49;101675.25;;;7.94;69.59
59475;BME280;45288;51.136;16.928;2024-01-30T09:40:49;101673.66;;;8.14;69.48
59475;BME280;45288;51.136;16.928;2024-01-30T09:43:26;101664.56;;;8.00;68.06
59475;BME280;45288;51.136;16.928;2024-01-30T09:46:26;101659.94;;;8.07;68.11
59475;BME280;45288;51.136;16.928;2024-01-30T09:49:02;101654.28;;;8.18;67.75
59475;BME280;45288;51.136;16.928;2024-01-30T09:51:55;101656.09;;;8.39;67.38
59475;BME280;45288;51.136;16.928;2024-01-30T09:54:31;101649.81;;;8.43;65.85
59475;BME280;45288;51.136;16.928;2024-01-30T09:57:25;101650.88;;;8.39;64.84
59475;BME280;45288;51.136;16.928;2024-01-30T10:00:05;101650.56;;;8.47;64.08
59475;BME280;45288;51.136;16.928;2024-01-30T10:02:57;101649.72;;;8.67;62.49
59475;BME280;45288;51.136;16.928;2024-01-30T10:05:31;101649.13;;;8.60;62.84
59475;BME280;45288;51.136;16.928;2024-01-30T10:08:26;101632.03;;;8.72;61.79
59475;BME280;45288;51.136;16.928;2024-01-30T10:10:58;101640.84;;;8.71;61.20
59475;BME280;45288;51.136;16.928;2024-01-30T10:13:52;101635.47;;;8.74;61.86
59475;BME280;45288;51.136;16.928;2024-01-30T10:16:25;101635.66;;;8.90;61.56
59475;BME280;45288;51.136;16.928;2024-01-30T10:19:21;101631.16;;;8.93;60.78
59475;BME280;45288;51.136;16.928;2024-01-30T10:21:54;101629.44;;;8.92;61.30
59475;BME280;45288;51.136;16.928;2024-01-30T10:24:48;101633.31;;;9.04;61.52
59475;BME280;45288;51.136;16.928;2024-01-30T10:27:30;101625.97;;;9.12;59.50
59475;BME280;45288;51.136;16.928;2024-01-30T10:30:16;101625.38;;;9.45;59.32
59475;BME280;45288;51.136;16.928;2024-01-30T10:33:02;101627.28;;;9.42;57.83
59475;BME280;45288;51.136;16.928;2024-01-30T10:36:03;101626.50;;;9.39;57.05
59475;BME280;45288;51.136;16.928;2024-01-30T10:38:36;101620.50;;;9.37;56.58
59475;BME280;45288;51.136;16.928;2024-01-30T10:41:43;101621.34;;;9.57;55.65
59475;BME280;45288;51.136;16.928;2024-01-30T10:44:19;101612.28;;;9.64;55.14
59475;BME280;45288;51.136;16.928;2024-01-30T10:47:12;101604.75;;;9.75;54.38
59475;BME280;45288;51.136;16.928;2024-01-30T10:49:51;101607.09;;;9.81;54.21
59475;BME280;45288;51.136;16.928;2024-01-30T10:52:46;101592.84;;;9.87;54.02
59475;BME280;45288;51.136;16.928;2024-01-30T10:55:21;101597.63;;;9.96;53.91
59475;BME280;45288;51.136;16.928;2024-01-30T10:58:17;101589.47;;;10.02;51.58
59475;BME280;45288;51.136;16.928;2024-01-30T11:00:52;101590.91;;;9.91;51.75
59475;BME280;45288;51.136;16.928;2024-01-30T11:03:45;101592.75;;;10.08;52.89
59475;BME280;45288;51.136;16.928;2024-01-30T11:06:18;101586.19;;;10.16;52.15
59475;BME280;45288;51.136;16.928;2024-01-30T11:09:12;101579.88;;;10.20;52.69
59475;BME280;45288;51.136;16.928;2024-01-30T11:11:57;101588.38;;;10.25;52.60
59475;BME280;45288;51.136;16.928;2024-01-30T11:20:46;101579.28;;;10.50;50.47
59475;BME280;45288;51.136;16.928;2024-01-30T11:23:22;101579.06;;;10.55;50.59
59475;BME280;45288;51.136;16.928;2024-01-30T11:26:15;101576.22;;;10.59;51.00
59475;BME280;45288;51.136;16.928;2024-01-30T11:28:52;101568.47;;;10.74;49.95
59475;BME280;45288;51.136;16.928;2024-01-30T11:31:58;101574.81;;;10.87;49.81
59475;BME280;45288;51.136;16.928;2024-01-30T11:34:52;101563.41;;;10.86;50.02
59475;BME280;45288;51.136;16.928;2024-01-30T11:37:25;101560.41;;;10.94;50.23
59475;BME280;45288;51.136;16.928;2024-01-30T11:40:19;101556.53;;;10.84;49.68
59475;BME280;45288;51.136;16.928;2024-01-30T11:42:52;101548.94;;;10.79;50.63
59475;BME280;45288;51.136;16.928;2024-01-30T11:45:45;101555.50;;;11.04;51.24
59475;BME280;45288;51.136;16.928;2024-01-30T11:48:18;101549.38;;;10.87;51.70
59475;BME280;45288;51.136;16.928;2024-01-30T11:51:13;101546.03;;;10.84;52.26
59475;BME280;45288;51.136;16.928;2024-01-30T11:53:49;101541.09;;;10.95;52.64
59475;BME280;45288;51.136;16.928;2024-01-30T11:56:43;101532.63;;;11.06;52.81
59475;BME280;45288;51.136;16.928;2024-01-30T11:59:17;101527.78;;;10.98;53.32
59475;BME280;45288;51.136;16.928;2024-01-30T12:02:15;101526.34;;;11.08;53.82
59475;BME280;45288;51.136;16.928;2024-01-30T12:04:49;101529.75;;;11.10;53.95
59475;BME280;45288;51.136;16.928;2024-01-30T12:07:45;101525.88;;;11.33;53.88
59475;BME280;45288;51.136;16.928;2024-01-30T12:10:18;101520.88;;;11.29;52.65
59475;BME280;45288;51.136;16.928;2024-01-30T12:13:12;101519.34;;;11.25;52.28
59475;BME280;45288;51.136;16.928;2024-01-30T12:15:47;101520.28;;;11.40;54.47
59475;BME280;45288;51.136;16.928;2024-01-30T12:18:41;101514.25;;;11.22;53.00
59475;BME280;45288;51.136;16.928;2024-01-30T12:21:21;101508.75;;;11.42;52.33
59475;BME280;45288;51.136;16.928;2024-01-30T12:24:06;101509.75;;;11.55;51.97
59475;BME280;45288;51.136;16.928;2024-01-30T12:26:46;101505.75;;;11.48;51.51
59475;BME280;45288;51.136;16.928;2024-01-30T12:29:33;101501.28;;;11.19;52.33
59475;BME280;45288;51.136;16.928;2024-01-30T12:32:22;101493.63;;;11.30;51.62
59475;BME280;45288;51.136;16.928;2024-01-30T12:35:30;101489.38;;;11.43;51.09
59475;BME280;45288;51.136;16.928;2024-01-30T12:38:24;101480.59;;;11.44;50.68
59475;BME280;45288;51.136;16.928;2024-01-30T12:40:57;101484.66;;;11.34;49.59
59475;BME280;45288;51.136;16.928;2024-01-30T12:43:51;101484.47;;;11.53;48.66
59475;BME280;45288;51.136;16.928;2024-01-30T12:46:28;101482.09;;;11.48;48.34
59475;BME280;45288;51.136;16.928;2024-01-30T12:49:22;101480.94;;;11.54;49.00
59475;BME280;45288;51.136;16.928;2024-01-30T12:51:59;101472.44;;;11.49;48.68
59475;BME280;45288;51.136;16.928;2024-01-30T12:54:53;101469.72;;;11.50;47.88
59475;BME280;45288;51.136;16.928;2024-01-30T12:57:28;101477.97;;;11.74;47.89
59475;BME280;45288;51.136;16.928;2024-01-30T13:00:22;101479.50;;;11.94;49.06
59475;BME280;45288;51.136;16.928;2024-01-30T13:02:55;101477.00;;;11.93;50.13
59475;BME280;45288;51.136;16.928;2024-01-30T13:05:48;101474.25;;;11.94;49.03
59475;BME280;45288;51.136;16.928;2024-01-30T13:08:21;101471.25;;;11.85;48.68
59475;BME280;45288;51.136;16.928;2024-01-30T13:11:14;101470.25;;;11.87;48.89
59475;BME280;45288;51.136;16.928;2024-01-30T13:13:47;101475.22;;;12.08;48.76
59475;BME280;45288;51.136;16.928;2024-01-30T13:16:41;101469.47;;;12.01;50.31
59475;BME280;45288;51.136;16.928;2024-01-30T13:19:15;101461.31;;;12.06;48.93
59475;BME280;45288;51.136;16.928;2024-01-30T13:22:10;101456.78;;;12.08;48.97
59475;BME280;45288;51.136;16.928;2024-01-30T13:24:43;101460.75;;;12.00;49.46
59475;BME280;45288;51.136;16.928;2024-01-30T13:27:39;101458.91;;;12.17;54.59
59475;BME280;45288;51.136;16.928;2024-01-30T13:30:13;101458.06;;;12.31;51.98
59475;BME280;45288;51.136;16.928;2024-01-30T13:33:07;101458.38;;;11.96;51.97
59475;BME280;45288;51.136;16.928;2024-01-30T13:36:01;101453.78;;;11.99;52.50
59475;BME280;45288;51.136;16.928;2024-01-30T13:38:33;101464.50;;;11.81;52.95
59475;BME280;45288;51.136;16.928;2024-01-30T13:41:25;101446.81;;;11.52;52.68
59475;BME280;45288;51.136;16.928;2024-01-30T13:43:58;101452.31;;;11.48;53.54
59475;BME280;45288;51.136;16.928;2024-01-30T13:46:50;101452.69;;;11.42;53.75
59475;BME280;45288;51.136;16.928;2024-01-30T13:49:23;101450.13;;;11.40;54.19
59475;BME280;45288;51.136;16.928;2024-01-30T13:52:15;101460.91;;;11.51;54.47
59475;BME280;45288;51.136;16.928;2024-01-30T13:54:48;101446.22;;;11.47;55.12
59475;BME280;45288;51.136;16.928;2024-01-30T13:57:40;101448.59;;;11.52;55.76
59475;BME280;45288;51.136;16.928;2024-01-30T14:00:17;101444.88;;;11.40;55.83
59475;BME280;45288;51.136;16.928;2024-01-30T14:03:10;101451.66;;;11.12;56.32
59475;BME280;45288;51.136;16.928;2024-01-30T14:05:43;101441.59;;;11.05;57.03
59475;BME280;45288;51.136;16.928;2024-01-30T14:08:35;101451.41;;;11.01;57.42
59475;BME280;45288;51.136;16.928;2024-01-30T14:11:08;101450.91;;;11.10;57.01
59475;BME280;45288;51.136;16.928;2024-01-30T14:14:02;101441.91;;;11.30;56.59
59475;BME280;45288;51.136;16.928;2024-01-30T14:16:47;101438.84;;;11.38;56.41
59475;BME280;45288;51.136;16.928;2024-01-30T14:19:42;101439.63;;;11.24;57.05
59475;BME280;45288;51.136;16.928;2024-01-30T14:22:22;101436.66;;;11.14;57.37